sensor_id;sensor_type;location;lat;lon;timestamp;P1;durP1;ratioP1;P2;durP2;ratioP2
53389;SDS011;39288;42.970;1.524;2022-12-13T00:00:58;63.10;;;38.10;;
53389;SDS011;39288;42.970;1.524;2022-12-13T00:01:59;45.13;;;31.30;;
53389;SDS011;39288;42.970;1.524;2022-12-13T00:02:59;58.70;;;41.13;;
53389;SDS011;39288;42.970;1.524;2022-12-13T00:04:01;51.07;;;36.17;;
53389;SDS011;39288;42.970;1.524;2022-12-13T00:05:03;48.22;;;36.03;;
53389;SDS011;39288;42.970;1.524;2022-12-13T00:06:05;198.83;;;45.03;;
53389;SDS011;39288;42.970;1.524;2022-12-13T00:07:06;317.27;;;52.88;;
53389;SDS011;39288;42.970;1.524;2022-12-13T00:08:06;36.53;;;27.60;;
53389;SDS011;39288;42.970;1.524;2022-12-13T00:09:07;56.73;;;31.93;;
53389;SDS011;39288;42.970;1.524;2022-12-13T00:10:09;46.88;;;31.92;;
53389;SDS011;39288;42.970;1.524;2022-12-13T00:11:10;41.50;;;31.33;;
53389;SDS011;39288;42.970;1.524;2022-12-13T00:12:11;56.53;;;35.95;;
53389;SDS011;39288;42.970;1.524;2022-12-13T00:13:12;43.80;;;32.40;;
53389;SDS011;39288;42.970;1.524;2022-12-13T00:14:12;40.00;;;29.17;;
53389;SDS011;39288;42.970;1.524;2022-12-13T00:15:13;37.83;;;29.50;;
53389;SDS011;39288;42.970;1.524;2022-12-13T00:16:15;40.43;;;28.83;;
53389;SDS011;39288;42.970;1.524;2022-12-13T00:17:17;56.47;;;37.40;;
53389;SDS011;39288;42.970;1.524;2022-12-13T00:18:18;56.93;;;38.47;;
53389;SDS011;39288;42.970;1.524;2022-12-13T00:19:19;56.67;;;39.83;;
53389;SDS011;39288;42.970;1.524;2022-12-13T00:20:19;44.00;;;33.57;;
53389;SDS011;39288;42.970;1.524;2022-12-13T00:21:20;44.03;;;34.63;;
53389;SDS011;39288;42.970;1.524;2022-12-13T00:22:23;47.00;;;36.97;;
53389;SDS011;39288;42.970;1.524;2022-12-13T00:23:30;72.38;;;47.10;;
53389;SDS011;39288;42.970;1.524;2022-12-13T00:24:30;47.42;;;36.88;;
53389;SDS011;39288;42.970;1.524;2022-12-13T00:25:32;58.60;;;42.17;;
53389;SDS011;39288;42.970;1.524;2022-12-13T00:27:33;65.80;;;45.20;;
53389;SDS011;39288;42.970;1.524;2022-12-13T00:28:33;52.53;;;40.60;;
53389;SDS011;39288;42.970;1.524;2022-12-13T00:29:34;85.20;;;46.17;;
53389;SDS011;39288;42.970;1.524;2022-12-13T00:30:34;211.00;;;53.85;;
53389;SDS011;39288;42.970;1.524;2022-12-13T00:31:35;88.23;;;44.37;;
53389;SDS011;39288;42.970;1.524;2022-12-13T00:32:36;64.57;;;40.93;;
53389;SDS011;39288;42.970;1.524;2022-12-13T00:33:37;59.50;;;40.80;;
53389;SDS011;39288;42.970;1.524;2022-12-13T00:34:39;67.60;;;42.00;;
53389;SDS011;39288;42.970;1.524;2022-12-13T00:35:40;64.07;;;43.97;;
53389;SDS011;39288;42.970;1.524;2022-12-13T00:36:40;55.97;;;37.80;;
53389;SDS011;39288;42.970;1.524;2022-12-13T00:37:41;380.63;;;66.40;;
53389;SDS011;39288;42.970;1.524;2022-12-13T00:38:41;381.38;;;62.58;;
53389;SDS011;39288;42.970;1.524;2022-12-13T00:39:42;525.83;;;76.75;;
53389;SDS011;39288;42.970;1.524;2022-12-13T00:40:43;93.03;;;39.70;;
53389;SDS011;39288;42.970;1.524;2022-12-13T00:41:44;44.93;;;32.20;;
53389;SDS011;39288;42.970;1.524;2022-12-13T00:42:44;60.33;;;43.25;;
53389;SDS011;39288;42.970;1.524;2022-12-13T00:43:45;57.80;;;41.53;;
53389;SDS011;39288;42.970;1.524;2022-12-13T00:44:46;63.55;;;45.55;;
53389;SDS011;39288;42.970;1.524;2022-12-13T00:45:46;73.03;;;45.07;;
53389;SDS011;39288;42.970;1.524;2022-12-13T00:46:47;67.47;;;41.40;;
53389;SDS011;39288;42.970;1.524;2022-12-13T00:47:47;51.83;;;38.50;;
53389;SDS011;39288;42.970;1.524;2022-12-13T00:48:52;51.50;;;38.57;;
53389;SDS011;39288;42.970;1.524;2022-12-13T00:49:54;43.05;;;34.15;;
53389;SDS011;39288;42.970;1.524;2022-12-13T00:50:54;47.37;;;34.90;;
53389;SDS011;39288;42.970;1.524;2022-12-13T00:51:55;53.03;;;37.70;;
53389;SDS011;39288;42.970;1.524;2022-12-13T00:52:55;240.07;;;49.87;;
53389;SDS011;39288;42.970;1.524;2022-12-13T00:53:58;239.38;;;41.75;;
53389;SDS011;39288;42.970;1.524;2022-12-13T00:54:59;64.60;;;32.25;;
53389;SDS011;39288;42.970;1.524;2022-12-13T00:56:00;54.73;;;32.27;;
53389;SDS011;39288;42.970;1.524;2022-12-13T00:57:01;47.83;;;33.13;;
53389;SDS011;39288;42.970;1.524;2022-12-13T00:58:01;43.57;;;30.87;;
53389;SDS011;39288;42.970;1.524;2022-12-13T00:59:02;50.13;;;34.20;;
53389;SDS011;39288;42.970;1.524;2022-12-13T01:00:03;46.25;;;31.50;;
53389;SDS011;39288;42.970;1.524;2022-12-13T01:01:05;42.55;;;31.90;;
53389;SDS011;39288;42.970;1.524;2022-12-13T01:02:10;44.33;;;32.15;;
53389;SDS011;39288;42.970;1.524;2022-12-13T01:03:10;69.03;;;44.97;;
53389;SDS011;39288;42.970;1.524;2022-12-13T01:04:19;46.50;;;33.20;;
53389;SDS011;39288;42.970;1.524;2022-12-13T01:05:20;705.30;;;94.27;;
53389;SDS011;39288;42.970;1.524;2022-12-13T01:06:22;93.30;;;39.37;;
53389;SDS011;39288;42.970;1.524;2022-12-13T01:07:26;71.03;;;38.00;;
53389;SDS011;39288;42.970;1.524;2022-12-13T01:08:26;51.80;;;35.63;;
53389;SDS011;39288;42.970;1.524;2022-12-13T01:09:27;61.15;;;36.95;;
53389;SDS011;39288;42.970;1.524;2022-12-13T01:10:30;50.20;;;35.90;;
53389;SDS011;39288;42.970;1.524;2022-12-13T01:11:30;131.47;;;49.47;;
53389;SDS011;39288;42.970;1.524;2022-12-13T01:12:31;52.97;;;38.30;;
53389;SDS011;39288;42.970;1.524;2022-12-13T01:13:32;53.72;;;39.85;;
53389;SDS011;39288;42.970;1.524;2022-12-13T01:14:33;50.40;;;38.42;;
53389;SDS011;39288;42.970;1.524;2022-12-13T01:16:39;73.50;;;47.00;;
53389;SDS011;39288;42.970;1.524;2022-12-13T01:17:39;70.87;;;47.97;;
53389;SDS011;39288;42.970;1.524;2022-12-13T01:18:40;86.47;;;51.63;;
53389;SDS011;39288;42.970;1.524;2022-12-13T01:19:40;80.53;;;50.00;;
53389;SDS011;39288;42.970;1.524;2022-12-13T01:20:41;66.27;;;43.70;;
53389;SDS011;39288;42.970;1.524;2022-12-13T01:21:41;53.53;;;37.30;;
53389;SDS011;39288;42.970;1.524;2022-12-13T01:22:42;72.30;;;44.23;;
53389;SDS011;39288;42.970;1.524;2022-12-13T01:23:43;62.47;;;41.93;;
53389;SDS011;39288;42.970;1.524;2022-12-13T01:24:43;69.43;;;43.45;;
53389;SDS011;39288;42.970;1.524;2022-12-13T01:25:44;87.07;;;44.70;;
53389;SDS011;39288;42.970;1.524;2022-12-13T01:26:45;74.33;;;39.80;;
53389;SDS011;39288;42.970;1.524;2022-12-13T01:27:45;52.77;;;35.50;;
53389;SDS011;39288;42.970;1.524;2022-12-13T01:28:46;43.57;;;32.57;;
53389;SDS011;39288;42.970;1.524;2022-12-13T01:29:47;68.07;;;40.45;;
53389;SDS011;39288;42.970;1.524;2022-12-13T01:30:57;69.90;;;40.00;;
53389;SDS011;39288;42.970;1.524;2022-12-13T01:32:05;56.25;;;33.47;;
53389;SDS011;39288;42.970;1.524;2022-12-13T01:33:05;38.67;;;25.93;;
53389;SDS011;39288;42.970;1.524;2022-12-13T01:34:07;36.40;;;26.87;;
53389;SDS011;39288;42.970;1.524;2022-12-13T01:36:41;29.88;;;22.60;;
53389;SDS011;39288;42.970;1.524;2022-12-13T01:37:42;29.63;;;21.00;;
53389;SDS011;39288;42.970;1.524;2022-12-13T01:38:43;29.73;;;22.50;;
53389;SDS011;39288;42.970;1.524;2022-12-13T01:39:44;39.87;;;26.50;;
53389;SDS011;39288;42.970;1.524;2022-12-13T01:40:45;25.80;;;19.27;;
53389;SDS011;39288;42.970;1.524;2022-12-13T01:41:47;27.90;;;21.40;;
53389;SDS011;39288;42.970;1.524;2022-12-13T01:42:49;122.47;;;59.50;;
53389;SDS011;39288;42.970;1.524;2022-12-13T01:43:51;70.67;;;39.40;;
53389;SDS011;39288;42.970;1.524;2022-12-13T01:45:11;47.83;;;32.47;;
53389;SDS011;39288;42.970;1.524;2022-12-13T01:46:17;49.38;;;28.92;;
53389;SDS011;39288;42.970;1.524;2022-12-13T01:49:12;37.53;;;26.67;;
53389;SDS011;39288;42.970;1.524;2022-12-13T01:50:16;35.17;;;26.02;;
53389;SDS011;39288;42.970;1.524;2022-12-13T01:51:19;34.70;;;25.73;;
53389;SDS011;39288;42.970;1.524;2022-12-13T01:52:22;249.25;;;47.88;;
53389;SDS011;39288;42.970;1.524;2022-12-13T01:53:25;287.27;;;54.25;;
53389;SDS011;39288;42.970;1.524;2022-12-13T01:54:29;296.45;;;48.65;;
53389;SDS011;39288;42.970;1.524;2022-12-13T01:55:33;903.45;;;105.93;;
53389;SDS011;39288;42.970;1.524;2022-12-13T01:56:37;194.80;;;45.92;;
53389;SDS011;39288;42.970;1.524;2022-12-13T01:57:42;69.68;;;37.03;;
53389;SDS011;39288;42.970;1.524;2022-12-13T01:58:43;67.70;;;36.35;;
53389;SDS011;39288;42.970;1.524;2022-12-13T01:59:44;56.10;;;34.72;;
53389;SDS011;39288;42.970;1.524;2022-12-13T02:00:45;36.15;;;27.88;;
53389;SDS011;39288;42.970;1.524;2022-12-13T02:01:47;34.80;;;25.83;;
53389;SDS011;39288;42.970;1.524;2022-12-13T02:02:49;70.05;;;31.63;;
53389;SDS011;39288;42.970;1.524;2022-12-13T02:03:49;76.70;;;32.90;;
53389;SDS011;39288;42.970;1.524;2022-12-13T02:05:09;114.87;;;36.53;;
53389;SDS011;39288;42.970;1.524;2022-12-13T02:06:16;42.83;;;27.38;;
53389;SDS011;39288;42.970;1.524;2022-12-13T02:07:21;43.17;;;26.67;;
53389;SDS011;39288;42.970;1.524;2022-12-13T02:08:24;26.23;;;20.15;;
53389;SDS011;39288;42.970;1.524;2022-12-13T02:09:25;20.55;;;15.98;;
53389;SDS011;39288;42.970;1.524;2022-12-13T02:10:26;22.10;;;16.92;;
53389;SDS011;39288;42.970;1.524;2022-12-13T02:11:27;17.83;;;15.00;;
53389;SDS011;39288;42.970;1.524;2022-12-13T02:12:29;17.23;;;14.17;;
53389;SDS011;39288;42.970;1.524;2022-12-13T02:13:31;20.30;;;16.10;;
53389;SDS011;39288;42.970;1.524;2022-12-13T02:14:33;17.40;;;14.37;;
53389;SDS011;39288;42.970;1.524;2022-12-13T02:15:41;17.17;;;14.15;;
53389;SDS011;39288;42.970;1.524;2022-12-13T02:17:06;19.88;;;13.80;;
53389;SDS011;39288;42.970;1.524;2022-12-13T02:28:01;22.13;;;15.45;;
53389;SDS011;39288;42.970;1.524;2022-12-13T02:30:42;22.17;;;17.25;;
53389;SDS011;39288;42.970;1.524;2022-12-13T02:31:47;16.40;;;13.07;;
53389;SDS011;39288;42.970;1.524;2022-12-13T02:34:20;17.15;;;12.35;;
53389;SDS011;39288;42.970;1.524;2022-12-13T02:36:32;18.95;;;11.50;;
53389;SDS011;39288;42.970;1.524;2022-12-13T02:37:47;18.10;;;14.50;;
53389;SDS011;39288;42.970;1.524;2022-12-13T02:39:00;26.90;;;16.98;;
53389;SDS011;39288;42.970;1.524;2022-12-13T02:40:13;17.58;;;13.52;;
53389;SDS011;39288;42.970;1.524;2022-12-13T02:41:40;20.50;;;14.75;;
53389;SDS011;39288;42.970;1.524;2022-12-13T02:45:26;15.52;;;12.23;;
53389;SDS011;39288;42.970;1.524;2022-12-13T02:46:39;17.27;;;13.05;;
53389;SDS011;39288;42.970;1.524;2022-12-13T02:47:42;14.75;;;11.88;;
53389;SDS011;39288;42.970;1.524;2022-12-13T02:48:44;17.08;;;13.10;;
53389;SDS011;39288;42.970;1.524;2022-12-13T02:49:46;15.52;;;12.07;;
53389;SDS011;39288;42.970;1.524;2022-12-13T02:50:49;18.05;;;13.05;;
53389;SDS011;39288;42.970;1.524;2022-12-13T02:51:50;14.35;;;11.70;;
53389;SDS011;39288;42.970;1.524;2022-12-13T02:52:51;15.67;;;11.27;;
53389;SDS011;39288;42.970;1.524;2022-12-13T02:53:53;14.10;;;11.02;;
53389;SDS011;39288;42.970;1.524;2022-12-13T02:54:54;50.17;;;16.30;;
53389;SDS011;39288;42.970;1.524;2022-12-13T02:55:55;488.00;;;41.50;;
53389;SDS011;39288;42.970;1.524;2022-12-13T02:56:58;189.33;;;28.50;;
53389;SDS011;39288;42.970;1.524;2022-12-13T02:57:59;349.38;;;32.30;;
53389;SDS011;39288;42.970;1.524;2022-12-13T02:59:00;27.67;;;16.13;;
53389;SDS011;39288;42.970;1.524;2022-12-13T03:05:23;18.08;;;13.38;;
53389;SDS011;39288;42.970;1.524;2022-12-13T03:10:36;18.17;;;13.90;;
53389;SDS011;39288;42.970;1.524;2022-12-13T03:14:04;18.65;;;12.98;;
53389;SDS011;39288;42.970;1.524;2022-12-13T03:17:26;20.30;;;14.63;;
53389;SDS011;39288;42.970;1.524;2022-12-13T03:18:29;21.15;;;14.50;;
53389;SDS011;39288;42.970;1.524;2022-12-13T03:19:31;21.60;;;16.10;;
53389;SDS011;39288;42.970;1.524;2022-12-13T03:20:31;19.47;;;14.60;;
53389;SDS011;39288;42.970;1.524;2022-12-13T03:21:38;16.40;;;13.67;;
53389;SDS011;39288;42.970;1.524;2022-12-13T03:22:46;23.52;;;17.85;;
53389;SDS011;39288;42.970;1.524;2022-12-13T03:23:46;21.50;;;15.37;;
53389;SDS011;39288;42.970;1.524;2022-12-13T03:24:47;26.00;;;16.90;;
53389;SDS011;39288;42.970;1.524;2022-12-13T03:25:49;22.67;;;15.18;;
53389;SDS011;39288;42.970;1.524;2022-12-13T03:26:52;21.15;;;14.38;;
53389;SDS011;39288;42.970;1.524;2022-12-13T03:27:52;32.40;;;16.13;;
53389;SDS011;39288;42.970;1.524;2022-12-13T03:28:52;25.07;;;15.53;;
53389;SDS011;39288;42.970;1.524;2022-12-13T03:29:53;20.47;;;13.53;;
53389;SDS011;39288;42.970;1.524;2022-12-13T03:30:53;26.93;;;16.27;;
53389;SDS011;39288;42.970;1.524;2022-12-13T03:31:54;19.50;;;13.43;;
53389;SDS011;39288;42.970;1.524;2022-12-13T03:32:54;15.20;;;11.60;;
53389;SDS011;39288;42.970;1.524;2022-12-13T03:33:55;22.57;;;14.47;;
53389;SDS011;39288;42.970;1.524;2022-12-13T03:34:55;28.60;;;18.33;;
53389;SDS011;39288;42.970;1.524;2022-12-13T03:35:56;26.33;;;17.17;;
53389;SDS011;39288;42.970;1.524;2022-12-13T03:36:57;14.17;;;11.83;;
53389;SDS011;39288;42.970;1.524;2022-12-13T03:37:57;22.87;;;17.47;;
53389;SDS011;39288;42.970;1.524;2022-12-13T03:38:58;19.73;;;14.47;;
53389;SDS011;39288;42.970;1.524;2022-12-13T03:39:59;15.77;;;11.77;;
53389;SDS011;39288;42.970;1.524;2022-12-13T03:41:00;17.80;;;11.67;;
53389;SDS011;39288;42.970;1.524;2022-12-13T03:42:03;17.20;;;12.30;;
53389;SDS011;39288;42.970;1.524;2022-12-13T03:43:03;16.33;;;10.67;;
53389;SDS011;39288;42.970;1.524;2022-12-13T03:44:05;15.37;;;11.13;;
53389;SDS011;39288;42.970;1.524;2022-12-13T03:45:06;22.13;;;12.60;;
53389;SDS011;39288;42.970;1.524;2022-12-13T03:46:07;15.75;;;10.48;;
53389;SDS011;39288;42.970;1.524;2022-12-13T03:47:08;17.13;;;11.75;;
53389;SDS011;39288;42.970;1.524;2022-12-13T03:48:09;24.77;;;18.83;;
53389;SDS011;39288;42.970;1.524;2022-12-13T03:49:09;18.70;;;13.60;;
53389;SDS011;39288;42.970;1.524;2022-12-13T03:50:10;34.40;;;16.67;;
53389;SDS011;39288;42.970;1.524;2022-12-13T03:51:10;29.10;;;15.50;;
53389;SDS011;39288;42.970;1.524;2022-12-13T03:52:10;68.97;;;20.20;;
53389;SDS011;39288;42.970;1.524;2022-12-13T03:53:11;13.63;;;9.30;;
53389;SDS011;39288;42.970;1.524;2022-12-13T03:54:12;12.57;;;8.07;;
53389;SDS011;39288;42.970;1.524;2022-12-13T03:55:12;13.67;;;8.77;;
53389;SDS011;39288;42.970;1.524;2022-12-13T03:56:13;10.50;;;6.37;;
53389;SDS011;39288;42.970;1.524;2022-12-13T03:57:13;10.87;;;6.23;;
53389;SDS011;39288;42.970;1.524;2022-12-13T03:58:14;8.10;;;5.30;;
53389;SDS011;39288;42.970;1.524;2022-12-13T03:59:15;8.07;;;5.33;;
53389;SDS011;39288;42.970;1.524;2022-12-13T04:00:15;9.00;;;5.87;;
53389;SDS011;39288;42.970;1.524;2022-12-13T04:01:16;8.77;;;5.40;;
53389;SDS011;39288;42.970;1.524;2022-12-13T04:02:16;6.67;;;5.13;;
53389;SDS011;39288;42.970;1.524;2022-12-13T04:03:17;26.63;;;24.13;;
53389;SDS011;39288;42.970;1.524;2022-12-13T04:04:17;12.83;;;7.17;;
53389;SDS011;39288;42.970;1.524;2022-12-13T04:05:18;7.87;;;4.13;;
53389;SDS011;39288;42.970;1.524;2022-12-13T04:06:18;3.80;;;2.97;;
53389;SDS011;39288;42.970;1.524;2022-12-13T04:07:19;7.80;;;3.00;;
53389;SDS011;39288;42.970;1.524;2022-12-13T04:08:19;5.53;;;3.87;;
53389;SDS011;39288;42.970;1.524;2022-12-13T04:09:20;6.47;;;3.33;;
53389;SDS011;39288;42.970;1.524;2022-12-13T04:10:20;8.87;;;5.17;;
53389;SDS011;39288;42.970;1.524;2022-12-13T04:11:21;9.48;;;5.70;;
53389;SDS011;39288;42.970;1.524;2022-12-13T04:12:40;20.13;;;7.80;;
53389;SDS011;39288;42.970;1.524;2022-12-13T04:13:58;16.60;;;7.35;;
53389;SDS011;39288;42.970;1.524;2022-12-13T04:14:59;13.20;;;6.87;;
53389;SDS011;39288;42.970;1.524;2022-12-13T04:16:00;9.00;;;4.97;;
53389;SDS011;39288;42.970;1.524;2022-12-13T04:17:01;9.10;;;5.68;;
53389;SDS011;39288;42.970;1.524;2022-12-13T04:18:02;7.90;;;4.30;;
53389;SDS011;39288;42.970;1.524;2022-12-13T04:19:02;9.23;;;5.80;;
53389;SDS011;39288;42.970;1.524;2022-12-13T04:20:03;6.53;;;5.13;;
53389;SDS011;39288;42.970;1.524;2022-12-13T04:21:04;7.60;;;5.10;;
53389;SDS011;39288;42.970;1.524;2022-12-13T04:22:04;8.30;;;4.50;;
53389;SDS011;39288;42.970;1.524;2022-12-13T04:23:05;5.70;;;2.93;;
53389;SDS011;39288;42.970;1.524;2022-12-13T04:24:05;4.53;;;2.40;;
53389;SDS011;39288;42.970;1.524;2022-12-13T04:25:06;4.07;;;2.67;;
53389;SDS011;39288;42.970;1.524;2022-12-13T04:26:07;8.38;;;3.40;;
53389;SDS011;39288;42.970;1.524;2022-12-13T04:27:07;3.87;;;2.00;;
53389;SDS011;39288;42.970;1.524;2022-12-13T04:28:08;17.37;;;3.13;;
53389;SDS011;39288;42.970;1.524;2022-12-13T04:29:08;3.77;;;2.30;;
53389;SDS011;39288;42.970;1.524;2022-12-13T04:30:09;13.03;;;3.00;;
53389;SDS011;39288;42.970;1.524;2022-12-13T04:31:10;4.47;;;2.73;;
53389;SDS011;39288;42.970;1.524;2022-12-13T04:32:10;10.80;;;3.07;;
53389;SDS011;39288;42.970;1.524;2022-12-13T04:33:11;8.87;;;3.57;;
53389;SDS011;39288;42.970;1.524;2022-12-13T04:34:11;8.57;;;3.20;;
53389;SDS011;39288;42.970;1.524;2022-12-13T04:35:12;10.20;;;3.37;;
53389;SDS011;39288;42.970;1.524;2022-12-13T04:36:12;7.13;;;3.37;;
53389;SDS011;39288;42.970;1.524;2022-12-13T04:37:18;4.68;;;2.88;;
53389;SDS011;39288;42.970;1.524;2022-12-13T04:38:19;4.77;;;3.17;;
53389;SDS011;39288;42.970;1.524;2022-12-13T04:39:19;3.40;;;2.40;;
53389;SDS011;39288;42.970;1.524;2022-12-13T04:40:20;3.70;;;2.50;;
53389;SDS011;39288;42.970;1.524;2022-12-13T04:41:20;6.67;;;2.77;;
53389;SDS011;39288;42.970;1.524;2022-12-13T04:42:21;6.70;;;6.00;;
53389;SDS011;39288;42.970;1.524;2022-12-13T04:43:22;9.73;;;6.23;;
53389;SDS011;39288;42.970;1.524;2022-12-13T04:44:22;10.87;;;4.37;;
53389;SDS011;39288;42.970;1.524;2022-12-13T04:45:23;5.27;;;3.03;;
53389;SDS011;39288;42.970;1.524;2022-12-13T04:46:23;7.80;;;3.00;;
53389;SDS011;39288;42.970;1.524;2022-12-13T04:47:24;6.57;;;2.83;;
53389;SDS011;39288;42.970;1.524;2022-12-13T04:48:24;6.70;;;3.00;;
53389;SDS011;39288;42.970;1.524;2022-12-13T04:49:25;103.03;;;11.87;;
53389;SDS011;39288;42.970;1.524;2022-12-13T04:50:25;26.58;;;4.68;;
53389;SDS011;39288;42.970;1.524;2022-12-13T04:51:26;6.23;;;2.63;;
53389;SDS011;39288;42.970;1.524;2022-12-13T04:52:26;12.93;;;3.10;;
53389;SDS011;39288;42.970;1.524;2022-12-13T04:53:28;12.63;;;3.90;;
53389;SDS011;39288;42.970;1.524;2022-12-13T04:54:29;25.85;;;6.10;;
53389;SDS011;39288;42.970;1.524;2022-12-13T04:55:31;7.13;;;4.00;;
53389;SDS011;39288;42.970;1.524;2022-12-13T04:56:32;17.88;;;4.93;;
53389;SDS011;39288;42.970;1.524;2022-12-13T04:57:33;26.37;;;4.83;;
53389;SDS011;39288;42.970;1.524;2022-12-13T04:58:34;9.07;;;4.63;;
53389;SDS011;39288;42.970;1.524;2022-12-13T04:59:35;7.63;;;5.00;;
53389;SDS011;39288;42.970;1.524;2022-12-13T05:00:36;134.68;;;9.65;;
53389;SDS011;39288;42.970;1.524;2022-12-13T05:01:36;321.13;;;29.23;;
53389;SDS011;39288;42.970;1.524;2022-12-13T05:02:37;332.40;;;23.40;;
53389;SDS011;39288;42.970;1.524;2022-12-13T05:03:37;26.03;;;4.27;;
53389;SDS011;39288;42.970;1.524;2022-12-13T05:04:38;15.60;;;3.50;;
53389;SDS011;39288;42.970;1.524;2022-12-13T05:05:39;18.37;;;3.53;;
53389;SDS011;39288;42.970;1.524;2022-12-13T05:06:40;4.72;;;2.35;;
53389;SDS011;39288;42.970;1.524;2022-12-13T05:07:40;6.53;;;2.77;;
53389;SDS011;39288;42.970;1.524;2022-12-13T05:08:41;9.47;;;3.30;;
53389;SDS011;39288;42.970;1.524;2022-12-13T05:09:41;5.50;;;2.80;;
53389;SDS011;39288;42.970;1.524;2022-12-13T05:10:42;7.37;;;3.53;;
53389;SDS011;39288;42.970;1.524;2022-12-13T05:11:42;7.87;;;3.13;;
53389;SDS011;39288;42.970;1.524;2022-12-13T05:12:43;12.73;;;2.83;;
53389;SDS011;39288;42.970;1.524;2022-12-13T05:13:43;7.93;;;2.80;;
53389;SDS011;39288;42.970;1.524;2022-12-13T05:14:44;5.17;;;1.97;;
53389;SDS011;39288;42.970;1.524;2022-12-13T05:15:44;4.67;;;2.00;;
53389;SDS011;39288;42.970;1.524;2022-12-13T05:16:45;5.00;;;2.30;;
53389;SDS011;39288;42.970;1.524;2022-12-13T05:17:45;3.73;;;2.17;;
53389;SDS011;39288;42.970;1.524;2022-12-13T05:18:46;5.57;;;2.40;;
53389;SDS011;39288;42.970;1.524;2022-12-13T05:19:46;4.83;;;2.67;;
53389;SDS011;39288;42.970;1.524;2022-12-13T05:20:46;7.35;;;3.10;;
53389;SDS011;39288;42.970;1.524;2022-12-13T05:21:47;3.43;;;2.17;;
53389;SDS011;39288;42.970;1.524;2022-12-13T05:22:48;5.47;;;2.00;;
53389;SDS011;39288;42.970;1.524;2022-12-13T05:23:48;3.57;;;2.00;;
53389;SDS011;39288;42.970;1.524;2022-12-13T05:24:49;4.60;;;2.00;;
53389;SDS011;39288;42.970;1.524;2022-12-13T05:25:50;8.67;;;2.63;;
53389;SDS011;39288;42.970;1.524;2022-12-13T05:26:51;12.57;;;2.97;;
53389;SDS011;39288;42.970;1.524;2022-12-13T05:27:51;5.50;;;2.20;;
53389;SDS011;39288;42.970;1.524;2022-12-13T05:28:55;3.08;;;2.15;;
53389;SDS011;39288;42.970;1.524;2022-12-13T05:29:56;4.10;;;2.00;;
53389;SDS011;39288;42.970;1.524;2022-12-13T05:30:57;4.00;;;2.20;;
53389;SDS011;39288;42.970;1.524;2022-12-13T05:32:04;3.38;;;1.73;;
53389;SDS011;39288;42.970;1.524;2022-12-13T05:33:05;2.87;;;1.90;;
53389;SDS011;39288;42.970;1.524;2022-12-13T05:34:05;7.27;;;2.37;;
53389;SDS011;39288;42.970;1.524;2022-12-13T05:35:06;5.20;;;1.63;;
53389;SDS011;39288;42.970;1.524;2022-12-13T05:36:07;6.37;;;2.53;;
53389;SDS011;39288;42.970;1.524;2022-12-13T05:37:08;83.10;;;9.00;;
53389;SDS011;39288;42.970;1.524;2022-12-13T05:38:09;88.73;;;11.23;;
53389;SDS011;39288;42.970;1.524;2022-12-13T05:39:09;5.43;;;3.07;;
53389;SDS011;39288;42.970;1.524;2022-12-13T05:40:10;9.57;;;6.87;;
53389;SDS011;39288;42.970;1.524;2022-12-13T05:41:14;14.73;;;11.77;;
53389;SDS011;39288;42.970;1.524;2022-12-13T05:42:16;12.80;;;4.50;;
53389;SDS011;39288;42.970;1.524;2022-12-13T05:43:17;8.10;;;6.50;;
53389;SDS011;39288;42.970;1.524;2022-12-13T05:44:17;68.93;;;15.97;;
53389;SDS011;39288;42.970;1.524;2022-12-13T05:45:18;153.37;;;21.97;;
53389;SDS011;39288;42.970;1.524;2022-12-13T05:46:18;106.93;;;62.57;;
53389;SDS011;39288;42.970;1.524;2022-12-13T05:47:19;88.17;;;46.53;;
53389;SDS011;39288;42.970;1.524;2022-12-13T05:48:19;17.57;;;10.07;;
53389;SDS011;39288;42.970;1.524;2022-12-13T05:49:20;21.60;;;15.10;;
53389;SDS011;39288;42.970;1.524;2022-12-13T05:50:20;69.47;;;29.67;;
53389;SDS011;39288;42.970;1.524;2022-12-13T05:51:21;72.63;;;24.87;;
53389;SDS011;39288;42.970;1.524;2022-12-13T05:52:21;235.87;;;42.70;;
53389;SDS011;39288;42.970;1.524;2022-12-13T05:53:22;29.97;;;11.07;;
53389;SDS011;39288;42.970;1.524;2022-12-13T05:54:22;136.75;;;18.75;;
53389;SDS011;39288;42.970;1.524;2022-12-13T05:55:23;231.87;;;28.20;;
53389;SDS011;39288;42.970;1.524;2022-12-13T05:56:23;407.37;;;31.80;;
53389;SDS011;39288;42.970;1.524;2022-12-13T05:57:24;449.60;;;51.63;;
53389;SDS011;39288;42.970;1.524;2022-12-13T05:58:24;386.93;;;33.87;;
53389;SDS011;39288;42.970;1.524;2022-12-13T05:59:25;209.13;;;21.97;;
53389;SDS011;39288;42.970;1.524;2022-12-13T06:00:25;103.27;;;13.50;;
53389;SDS011;39288;42.970;1.524;2022-12-13T06:01:26;381.17;;;34.97;;
53389;SDS011;39288;42.970;1.524;2022-12-13T06:02:26;441.73;;;39.97;;
53389;SDS011;39288;42.970;1.524;2022-12-13T06:03:27;442.83;;;42.07;;
53389;SDS011;39288;42.970;1.524;2022-12-13T06:04:27;92.37;;;12.93;;
53389;SDS011;39288;42.970;1.524;2022-12-13T06:05:28;74.77;;;11.20;;
53389;SDS011;39288;42.970;1.524;2022-12-13T06:06:29;17.10;;;5.30;;
53389;SDS011;39288;42.970;1.524;2022-12-13T06:07:30;9.37;;;6.07;;
53389;SDS011;39288;42.970;1.524;2022-12-13T06:08:30;13.80;;;5.43;;
53389;SDS011;39288;42.970;1.524;2022-12-13T06:09:31;6.73;;;4.67;;
53389;SDS011;39288;42.970;1.524;2022-12-13T06:10:32;8.27;;;5.90;;
53389;SDS011;39288;42.970;1.524;2022-12-13T06:11:32;8.90;;;5.07;;
53389;SDS011;39288;42.970;1.524;2022-12-13T06:12:33;7.17;;;4.97;;
53389;SDS011;39288;42.970;1.524;2022-12-13T06:13:34;9.10;;;6.50;;
53389;SDS011;39288;42.970;1.524;2022-12-13T06:14:35;9.90;;;6.77;;
53389;SDS011;39288;42.970;1.524;2022-12-13T06:15:36;13.02;;;8.68;;
53389;SDS011;39288;42.970;1.524;2022-12-13T06:16:37;11.38;;;8.32;;
53389;SDS011;39288;42.970;1.524;2022-12-13T06:17:38;9.23;;;7.32;;
53389;SDS011;39288;42.970;1.524;2022-12-13T06:18:38;5.90;;;4.97;;
53389;SDS011;39288;42.970;1.524;2022-12-13T06:19:39;8.10;;;4.30;;
53389;SDS011;39288;42.970;1.524;2022-12-13T06:20:39;9.43;;;4.93;;
53389;SDS011;39288;42.970;1.524;2022-12-13T06:21:40;7.32;;;4.55;;
53389;SDS011;39288;42.970;1.524;2022-12-13T06:22:40;13.70;;;7.37;;
53389;SDS011;39288;42.970;1.524;2022-12-13T06:23:41;9.05;;;4.38;;
53389;SDS011;39288;42.970;1.524;2022-12-13T06:24:41;3.60;;;3.13;;
53389;SDS011;39288;42.970;1.524;2022-12-13T06:25:41;8.60;;;4.30;;
53389;SDS011;39288;42.970;1.524;2022-12-13T06:26:42;17.90;;;4.80;;
53389;SDS011;39288;42.970;1.524;2022-12-13T06:27:42;204.93;;;18.60;;
53389;SDS011;39288;42.970;1.524;2022-12-13T06:28:43;507.33;;;45.17;;
53389;SDS011;39288;42.970;1.524;2022-12-13T06:29:43;54.63;;;8.23;;
53389;SDS011;39288;42.970;1.524;2022-12-13T06:30:44;92.50;;;22.07;;
53389;SDS011;39288;42.970;1.524;2022-12-13T06:31:45;18.30;;;12.73;;
53389;SDS011;39288;42.970;1.524;2022-12-13T06:32:48;23.23;;;12.17;;
53389;SDS011;39288;42.970;1.524;2022-12-13T06:33:51;7.72;;;6.80;;
53389;SDS011;39288;42.970;1.524;2022-12-13T06:34:51;12.63;;;7.37;;
53389;SDS011;39288;42.970;1.524;2022-12-13T06:35:54;5.73;;;5.10;;
53389;SDS011;39288;42.970;1.524;2022-12-13T06:36:56;219.52;;;23.88;;
53389;SDS011;39288;42.970;1.524;2022-12-13T06:37:56;583.53;;;58.37;;
53389;SDS011;39288;42.970;1.524;2022-12-13T06:39:01;879.33;;;79.73;;
53389;SDS011;39288;42.970;1.524;2022-12-13T06:40:02;728.10;;;71.10;;
53389;SDS011;39288;42.970;1.524;2022-12-13T06:41:14;838.90;;;70.40;;